Latest Weather Observations for Tocal

IDN60801

Issued at 3:05 pm EDT Saturday 25 October 2014 (issued every 30 minutes, with the page automatically refreshed every 10 minutes)

About weather observations | Map of weather stations | Latest weather observations for NSW | Other Formats
Station Details ID: 061250 Name: TOCAL AWS Lat: -32.63 Lon: 151.59 Height: 30.0 m
Data from the previous 72 hours. | See also: Recent months at Tocal
Date/Time
EDT
Temp
°C
App
Temp
°C
Dew
Point
Rel
Hum
%
Delta-T
°C
Wind Press
QNH
hPa
Press
MSL
hPa
Rain
since 9 am
mm
Dir
 
Spd
km/h
Gust
km/h
Spd
kts
Gust
kts
25/03:00pm 33.8 32.6 9.7 22 13.8 E 6 13 3 7 - - 0.0
25/02:30pm 34.1 32.9 11.6 25 13.3 ENE 9 15 5 8 - - 0.0
25/02:00pm 33.7 32.3 10.9 25 13.3 NE 9 15 5 8 - - 0.0
25/01:30pm 34.1 32.6 10.5 23 13.7 SW 9 15 5 8 - - 0.0
25/01:00pm 33.0 30.9 9.7 24 13.3 SW 11 20 6 11 - - 0.0
25/12:30pm 32.2 31.3 10.5 26 12.5 SSW 6 13 3 7 - - 0.0
25/12:00pm 31.8 29.8 10.1 26 12.4 WNW 11 19 6 10 - - 0.0
25/11:30am 31.1 28.8 10.3 27 11.9 W 13 19 7 10 - - 0.0
25/11:00am 30.7 27.8 9.6 27 11.9 W 15 20 8 11 - - 0.0
25/10:30am 30.3 27.0 8.1 25 12.2 SW 15 22 8 12 - - 0.0
25/10:00am 29.9 26.8 8.8 26 11.7 W 15 22 8 12 - - 0.0
25/09:30am 28.8 26.7 11.2 33 10.1 W 13 19 7 10 - - 0.0
25/09:00am 25.2 27.1 16.8 59 5.2 E 2 7 1 4 - - 0.2
25/08:30am 23.2 24.3 17.0 68 3.8 ESE 7 9 4 5 - - 0.2
25/08:00am 20.8 23.5 17.7 82 1.9 CALM 0 0 0 0 - - 0.2
25/07:30am 18.4 20.4 16.0 86 1.4 CALM 0 6 0 3 - - 0.2
25/07:00am 17.6 19.4 15.4 87 1.3 CALM 0 0 0 0 - - 0.2
25/06:30am 17.2 18.6 15.5 90 1.0 ESE 2 7 1 4 - - 0.2
25/06:00am 17.2 18.9 15.3 88 1.1 CALM 0 0 0 0 - - 0.2
25/05:30am 16.6 17.5 15.2 91 0.8 NNW 4 7 2 4 - - 0.2
25/05:00am 17.1 18.6 15.6 91 0.9 WNW 2 6 1 3 - - 0.2
25/04:30am 17.3 18.8 15.8 91 0.9 NNW 2 7 1 4 - - 0.2
25/04:00am 17.3 19.3 16.1 93 0.7 CALM 0 2 0 1 - - 0.2
25/03:30am 17.9 19.3 16.4 91 0.9 WNW 4 7 2 4 - - 0.2
25/03:00am 19.0 20.2 16.8 87 1.3 WSW 6 7 3 4 - - 0.2
25/02:30am 19.6 20.6 16.8 84 1.7 NW 7 7 4 4 - - 0.2
25/02:00am 21.3 22.4 16.7 75 2.8 WSW 6 7 3 4 - - 0.2
25/01:30am 21.6 22.6 16.8 74 2.9 W 7 13 4 7 - - 0.2
25/01:00am 22.5 23.0 16.6 69 3.6 NNE 9 11 5 6 - - 0.2
25/12:30am 22.3 22.3 17.1 72 3.2 NNE 13 17 7 9 - - 0.2
25/12:00am 21.5 22.6 18.0 80 2.2 NNW 9 13 5 7 - - 0.2
 
Date/Time
EDT
Temp
°C
App
Temp
°C
Dew
Point
Rel
Hum
%
Delta-T
°C
Wind Press
QNH
hPa
Press
MSL
hPa
Rain
since 9 am
mm
Dir
 
Spd
km/h
Gust
km/h
Spd
kts
Gust
kts
24/11:30pm 22.4 23.9 18.1 76 2.7 SE 7 13 4 7 - - 0.2
24/11:04pm 23.6 20.7 17.1 67 4.0 SSW 28 46 15 25 - - 0.2
24/11:00pm 23.6 20.0 17.3 67 3.9 SSW 32 46 17 25 - - 0.2
24/10:30pm 24.9 21.7 16.4 59 5.2 WSW 28 50 15 27 - - 0.0
24/10:29pm 24.9 21.7 16.2 58 5.3 WSW 28 50 15 27 - - 0.0
24/10:28pm 24.9 21.7 16.2 58 5.3 WSW 28 50 15 27 - - 0.0
24/10:00pm 25.2 25.6 16.2 57 5.5 E 9 15 5 8 - - 0.0
24/09:30pm 25.1 26.6 16.7 59 5.2 NNE 4 11 2 6 - - 0.0
24/09:00pm 25.5 26.5 16.4 57 5.6 NNE 6 11 3 6 - - 0.0
24/08:30pm 25.7 25.3 16.3 56 5.8 NE 13 20 7 11 - - 0.0
24/08:00pm 26.1 26.4 16.0 53 6.2 NE 9 15 5 8 - - 0.0
24/07:30pm 26.4 25.9 16.0 52 6.4 ENE 13 22 7 12 - - 0.0
24/07:00pm 27.2 26.1 15.4 48 7.2 NE 15 22 8 12 - - 0.0
24/06:30pm 28.1 27.2 14.9 44 8.0 ENE 13 19 7 10 - - 0.0
24/06:00pm 28.9 27.4 14.1 40 8.9 ENE 15 20 8 11 - - 0.0
24/05:30pm 29.0 26.8 13.4 38 9.3 ENE 17 24 9 13 - - 0.0
24/05:00pm 29.4 26.9 12.3 34 10.0 NE 17 28 9 15 - - 0.0
24/04:30pm 30.2 27.5 12.8 34 10.3 E 19 28 10 15 - - 0.0
24/04:00pm 30.2 28.8 13.3 35 10.1 NE 13 20 7 11 - - 0.0
24/03:30pm 29.6 28.2 13.5 37 9.6 NE 13 19 7 10 - - 0.0
24/03:00pm 29.0 28.0 13.4 38 9.3 NNE 11 20 6 11 - - 0.0
24/02:30pm 29.2 28.1 15.3 42 8.5 NE 15 19 8 10 - - 0.0
24/02:00pm 27.5 27.6 15.6 48 7.3 ESE 9 13 5 7 - - 0.0
24/01:30pm 26.3 26.8 15.6 51 6.5 NNE 7 13 4 7 - - 0.0
24/01:00pm 25.7 26.5 16.3 56 5.8 E 7 13 4 7 - - 0.0
24/12:30pm 23.6 24.5 16.0 62 4.6 NNE 6 7 3 4 - - 0.0
24/12:00pm 23.5 24.3 17.2 67 3.9 S 9 13 5 7 - - 0.0
24/11:30am 23.3 24.3 16.4 65 4.2 S 6 11 3 6 - - 0.0
24/11:00am 23.9 24.0 16.4 63 4.6 NNW 11 17 6 9 - - 0.0
24/10:30am 22.0 22.1 16.4 70 3.4 WNW 11 17 6 9 - - 0.0
24/10:00am 20.9 20.3 15.7 72 3.1 W 13 19 7 10 - - 0.0
24/09:30am 21.7 21.8 15.5 68 3.7 SE 9 11 5 6 - - 0.0
24/09:00am 20.4 20.9 15.5 73 2.9 NNE 7 11 4 6 - - 0.0
24/08:30am 18.7 18.3 15.3 80 2.0 NNE 11 19 6 10 - - 0.0
24/08:00am 16.9 15.9 15.5 91 0.8 NE 15 26 8 14 - - 0.0
24/07:30am 16.4 15.7 15.4 94 0.6 NNE 13 17 7 9 - - 0.0
24/07:00am 16.2 16.1 15.9 98 0.2 NE 11 15 6 8 - - 0.0
24/06:30am 15.2 15.7 15.0 99 0.1 N 6 9 3 5 - - 0.0
24/06:00am 15.7 15.7 15.2 97 0.3 WSW 9 13 5 7 - - 0.0
24/05:30am 15.3 17.0 15.3 100 0.0 CALM 0 6 0 3 - - 0.0
24/05:00am 15.5 16.9 15.5 100 0.0 WSW 2 7 1 4 - - 0.0
24/04:30am 15.2 15.5 15.0 99 0.1 NW 7 9 4 5 - - 0.0
24/04:00am 15.3 15.5 14.8 97 0.3 W 7 9 4 5 - - 0.0
24/03:30am 14.7 15.6 14.0 96 0.4 WNW 2 7 1 4 - - 0.0
24/03:00am 14.8 15.7 14.1 96 0.4 W 2 7 1 4 - - 0.0
24/02:30am 14.8 16.0 13.7 93 0.6 CALM 0 0 0 0 - - 0.0
24/02:00am 14.5 15.3 13.6 94 0.5 WNW 2 6 1 3 - - 0.0
24/01:30am 15.0 15.5 13.9 93 0.6 W 4 7 2 4 - - 0.0
24/01:00am 15.4 15.9 14.0 91 0.8 W 4 6 2 3 - - 0.0
24/12:30am 15.3 15.8 14.1 92 0.7 W 4 9 2 5 - - 0.0
24/12:00am 16.1 16.3 14.3 89 1.0 WNW 6 7 3 4 - - 0.0
 
Date/Time
EDT
Temp
°C
App
Temp
°C
Dew
Point
Rel
Hum
%
Delta-T
°C
Wind Press
QNH
hPa
Press
MSL
hPa
Rain
since 9 am
mm
Dir
 
Spd
km/h
Gust
km/h
Spd
kts
Gust
kts
23/11:30pm 16.3 16.5 14.2 87 1.2 WNW 6 7 3 4 - - 0.0
23/11:00pm 17.1 16.8 14.3 83 1.6 W 9 11 5 6 - - 0.0
23/10:30pm 17.7 18.0 14.9 84 1.6 W 7 9 4 5 - - 0.0
23/10:00pm 18.2 19.1 15.1 82 1.8 WNW 4 7 2 4 - - 0.0
23/09:30pm 19.8 20.3 15.0 74 2.8 SSE 6 7 3 4 - - 0.0
23/09:00pm 20.5 22.0 14.7 69 3.4 CALM 0 0 0 0 - - 0.0
23/08:30pm 21.5 22.0 14.9 66 3.9 SW 6 7 3 4 - - 0.0
23/08:00pm 22.3 23.3 15.4 65 4.1 SSW 4 11 2 6 - - 0.0
23/07:30pm 22.5 22.0 14.9 62 4.5 S 11 15 6 8 - - 0.0
23/07:00pm 24.1 23.9 14.7 55 5.6 S 9 15 5 8 - - 0.0
23/06:30pm 25.1 24.4 14.3 51 6.4 S 11 17 6 9 - - 0.0
23/06:00pm 26.3 25.6 14.2 47 7.2 S 11 15 6 8 - - 0.0
23/05:30pm 27.8 26.1 12.6 39 8.9 SSE 13 19 7 10 - - 0.0
23/05:00pm 28.9 27.2 12.5 36 9.6 SE 13 19 7 10 - - 0.0
23/04:30pm 30.5 28.4 12.3 32 10.7 ESE 15 26 8 14 - - 0.0
23/04:00pm 31.4 29.6 12.0 30 11.4 SE 13 22 7 12 - - 0.0
23/03:30pm 31.4 30.0 11.0 28 11.8 S 9 13 5 7 - - 0.0
23/03:00pm 30.7 29.6 12.1 32 10.9 SSW 9 11 5 6 - - 0.0
23/02:30pm 30.1 29.3 12.9 34 10.2 S 9 17 5 9 - - 0.0
23/02:00pm 29.4 27.7 12.3 34 10.0 WSW 13 17 7 9 - - 0.0
23/01:30pm 29.7 27.9 12.1 33 10.3 WSW 13 19 7 10 - - 0.0
23/01:00pm 29.7 29.0 13.2 36 9.8 W 9 15 5 8 - - 0.0
23/12:30pm 28.6 29.1 15.6 45 8.0 NE 7 11 4 6 - - 0.0
23/12:00pm 26.7 - 14.9 48 7.1 - - - - - - - 0.0
23/11:30am 25.9 26.4 14.9 50 6.6 N 6 7 3 4 - - 0.0
23/11:00am 24.4 24.1 13.4 50 6.4 NE 7 9 4 5 - - 0.0
23/10:30am 23.8 23.6 12.9 50 6.3 NE 6 9 3 5 - - 0.0
23/10:00am 21.5 21.1 13.1 58 4.8 NNE 7 11 4 6 - - 0.0
23/09:30am 20.2 20.0 13.6 66 3.8 NE 7 9 4 5 - - 0.0
23/09:00am 19.0 19.1 13.8 72 3.0 NE 6 7 3 4 - - 0.0
23/08:30am 16.7 16.4 13.3 80 1.9 NE 7 9 4 5 - - 0.0
23/08:00am 15.6 15.3 12.7 83 1.6 ESE 6 7 3 4 - - 0.0
23/07:30am 12.8 13.4 11.9 94 0.5 CALM 0 0 0 0 - - 0.0
23/07:00am 11.2 10.1 10.8 97 0.2 WSW 7 9 4 5 - - 0.0
23/06:30am 10.7 10.9 10.5 99 0.1 CALM 0 0 0 0 - - 0.0
23/06:00am 10.6 10.8 10.6 100 0.0 W 0 7 0 4 - - 0.0
23/05:30am 10.4 9.4 10.2 99 0.1 NW 6 9 3 5 - - 0.0
23/05:00am 11.0 10.5 10.8 99 0.1 W 4 7 2 4 - - 0.0
23/04:30am 11.2 11.1 10.8 97 0.2 WSW 2 6 1 3 - - 0.0
23/04:00am 11.3 11.7 11.1 99 0.1 CALM 0 0 0 0 - - 0.0
23/03:30am 11.4 11.8 11.2 99 0.1 CALM 0 0 0 0 - - 0.0
23/03:00am 11.5 10.5 11.1 97 0.2 NW 7 7 4 4 - - 0.0
23/02:30am 12.0 12.4 11.4 96 0.3 CALM 0 0 0 0 - - 0.0
23/02:00am 12.1 12.2 11.5 96 0.3 NW 2 6 1 3 - - 0.0
23/01:30am 12.3 11.6 11.5 95 0.4 NW 6 6 3 3 - - 0.0
23/01:00am 12.7 12.1 11.6 93 0.6 WNW 6 6 3 3 - - 0.0
23/12:30am 13.9 14.5 12.0 88 1.0 CALM 0 0 0 0 - - 0.0
23/12:00am 14.0 13.5 12.0 88 1.1 W 6 7 3 4 - - 0.0
 
Date/Time
EDT
Temp
°C
App
Temp
°C
Dew
Point
Rel
Hum
%
Delta-T
°C
Wind Press
QNH
hPa
Press
MSL
hPa
Rain
since 9 am
mm
Dir
 
Spd
km/h
Gust
km/h
Spd
kts
Gust
kts
22/11:30pm 15.6 15.1 12.1 80 1.9 WNW 6 9 3 5 - - 0.0
22/11:00pm 16.7 17.4 12.1 74 2.5 CALM 0 0 0 0 - - 0.0
22/10:30pm 17.7 18.3 11.9 69 3.2 CALM 0 6 0 3 - - 0.0
22/10:00pm 17.6 18.3 12.2 70 3.0 CALM 0 7 0 4 - - 0.0
22/09:30pm 18.5 19.1 12.0 66 3.6 CALM 0 6 0 3 - - 0.0
22/09:00pm 18.1 18.5 12.5 70 3.1 SSW 2 7 1 4 - - 0.0
22/08:30pm 18.8 18.4 12.3 66 3.6 SW 6 7 3 4 - - 0.0
22/08:00pm 19.2 19.3 12.6 65 3.7 NNE 4 9 2 5 - - 0.0
22/07:30pm 19.8 18.6 12.7 63 4.0 S 11 13 6 7 - - 0.0
22/07:00pm 21.4 20.4 12.4 56 5.1 SSE 9 11 5 6 - - 0.0
22/06:30pm 22.3 21.1 12.7 54 5.5 SE 11 15 6 8 - - 0.0
22/06:00pm 23.1 21.9 12.8 52 5.9 SE 11 17 6 9 - - 0.0
22/05:30pm 23.4 21.6 12.1 49 6.4 SSE 13 19 7 10 - - 0.0
22/05:00pm 24.3 22.5 12.2 46 6.9 SE 13 20 7 11 - - 0.0
22/04:30pm 25.4 23.4 11.5 41 7.9 SE 13 19 7 10 - - 0.0
22/04:00pm 25.6 24.1 9.3 35 8.9 E 7 15 4 8 - - 0.0
22/03:30pm 25.2 23.3 9.2 36 8.7 E 9 15 5 8 - - 0.0

Other Formats:

Comma delimited format used in spreadsheet applications
http://www.bom.gov.au/fwo/IDN60801/IDN60801.94775.axf

JavaScript Object Notation format (JSON) in row-major order
http://www.bom.gov.au/fwo/IDN60801/IDN60801.94775.json